createdAt,value
2019-05-13T00:00:08.167Z,88.20
2019-05-13T00:02:58.390Z,88.50
2019-05-13T00:05:48.341Z,89.00
2019-05-13T00:08:38.031Z,89.20
2019-05-13T00:11:27.745Z,90.10
2019-05-13T00:14:16.736Z,90.40
2019-05-13T00:17:06.724Z,90.90
2019-05-13T00:19:56.071Z,91.20
2019-05-13T00:22:45.778Z,91.40
2019-05-13T00:25:35.558Z,91.70
2019-05-13T00:28:24.587Z,92.00
2019-05-13T00:31:13.925Z,92.30
2019-05-13T00:34:03.852Z,92.30
2019-05-13T00:37:07.290Z,92.70
2019-05-13T00:39:44.871Z,93.00
2019-05-13T00:42:34.877Z,93.20
2019-05-13T00:45:24.599Z,93.50
2019-05-13T00:48:14.554Z,94.30
2019-05-13T00:51:04.190Z,94.40
2019-05-13T00:53:53.761Z,94.60
2019-05-13T00:56:43.766Z,94.90
2019-05-13T00:59:35.304Z,95.00
2019-05-13T01:02:25.014Z,95.30
2019-05-13T01:05:15.299Z,95.40
2019-05-13T01:08:04.949Z,95.50
2019-05-13T01:10:55.031Z,95.70
2019-05-13T01:13:44.670Z,95.90
2019-05-13T01:16:34.228Z,96.20
2019-05-13T01:19:23.920Z,96.30
2019-05-13T01:22:14.207Z,96.50
2019-05-13T01:25:04.088Z,96.70
2019-05-13T01:30:48.439Z,96.80
2019-05-13T01:33:37.383Z,97.00
2019-05-13T01:36:26.915Z,97.00
2019-05-13T01:39:16.522Z,97.10
2019-05-13T01:42:06.692Z,97.20
2019-05-13T01:44:55.936Z,97.40
2019-05-13T01:47:45.483Z,97.50
2019-05-13T01:50:35.029Z,97.60
2019-05-13T01:53:24.727Z,97.70
2019-05-13T01:56:16.712Z,97.70
2019-05-13T01:59:19.423Z,97.70
2019-05-13T02:02:10.103Z,97.90
2019-05-13T02:05:00.087Z,97.90
2019-05-13T02:07:59.656Z,98.20
2019-05-13T02:10:57.242Z,98.40
2019-05-13T02:13:46.891Z,98.30
2019-05-13T02:16:38.987Z,98.50
2019-05-13T02:19:29.408Z,98.70
2019-05-13T02:22:18.659Z,98.80
2019-05-13T02:25:09.300Z,98.70
2019-05-13T02:27:59.018Z,98.90
2019-05-13T02:30:48.259Z,99.20
2019-05-13T02:33:38.645Z,99.30
2019-05-13T02:36:28.349Z,99.20
2019-05-13T02:39:17.917Z,99.20
2019-05-13T02:42:08.240Z,99.30
2019-05-13T02:44:57.848Z,99.30
2019-05-13T02:47:47.374Z,99.50
2019-05-13T02:50:36.133Z,99.50
2019-05-13T02:53:25.491Z,99.70
2019-05-13T02:56:18.372Z,99.90
2019-05-13T02:59:13.794Z,99.90
2019-05-13T03:02:12.318Z,99.90
2019-05-13T03:05:03.175Z,99.90
2019-05-13T03:07:53.091Z,99.80
2019-05-13T03:10:43.499Z,99.50
2019-05-13T03:13:33.981Z,99.60
2019-05-13T03:16:33.176Z,99.80
2019-05-13T03:19:22.856Z,99.90
2019-05-13T03:22:13.634Z,99.90
2019-05-13T03:25:04.209Z,99.90
2019-05-13T03:27:54.473Z,99.90
2019-05-13T03:30:46.231Z,99.90
2019-05-13T03:33:37.681Z,99.90
2019-05-13T03:36:27.998Z,99.90
2019-05-13T03:39:17.895Z,99.90
2019-05-13T03:42:12.150Z,99.90
2019-05-13T03:45:03.376Z,99.90
2019-05-13T03:47:55.778Z,99.90
2019-05-13T03:50:45.686Z,99.90
2019-05-13T03:53:35.751Z,99.90
2019-05-13T03:56:26.227Z,99.90
2019-05-13T03:59:25.657Z,99.90
2019-05-13T04:02:15.036Z,99.90
2019-05-13T04:05:05.674Z,99.90
2019-05-13T04:07:55.441Z,99.90
2019-05-13T04:10:45.500Z,99.90
2019-05-13T04:13:35.345Z,99.90
2019-05-13T04:16:25.196Z,99.90
2019-05-13T04:19:14.560Z,99.90
2019-05-13T04:22:04.763Z,99.90
2019-05-13T04:24:54.774Z,99.90
2019-05-13T04:27:44.810Z,99.90
2019-05-13T04:30:35.067Z,99.90
2019-05-13T04:33:24.237Z,99.90
2019-05-13T04:36:14.165Z,99.90
2019-05-13T04:39:05.377Z,99.90
2019-05-13T04:41:55.433Z,99.90
2019-05-13T04:44:45.302Z,99.90
2019-05-13T04:47:34.778Z,99.90
2019-05-13T04:50:24.730Z,99.90
2019-05-13T04:53:22.807Z,99.90
2019-05-13T04:56:16.682Z,99.90
2019-05-13T04:59:06.304Z,99.90
2019-05-13T05:02:13.481Z,99.90
2019-05-13T05:05:22.266Z,99.90
2019-05-13T05:08:41.959Z,99.80
2019-05-13T05:12:06.227Z,99.60
2019-05-13T05:15:24.923Z,99.30
2019-05-13T05:19:02.088Z,98.80
2019-05-13T05:22:26.574Z,98.90
2019-05-13T05:25:37.206Z,98.60
2019-05-13T05:29:11.355Z,98.40
2019-05-13T05:33:11.217Z,98.20
2019-05-13T05:36:22.986Z,98.20
2019-05-13T05:39:24.758Z,97.80
2019-05-13T05:42:17.114Z,97.70
2019-05-13T05:45:06.715Z,97.50
2019-05-13T05:47:57.980Z,97.50
2019-05-13T05:50:48.325Z,97.20
2019-05-13T05:53:42.316Z,97.30
2019-05-13T05:56:33.894Z,96.50
2019-05-13T05:59:28.187Z,96.80
2019-05-13T06:02:22.877Z,96.40
2019-05-13T06:05:12.502Z,96.10
2019-05-13T06:08:02.027Z,96.00
2019-05-13T06:10:53.762Z,95.70
2019-05-13T06:13:43.453Z,95.30
2019-05-13T06:16:33.119Z,94.40
2019-05-13T06:19:22.685Z,94.30
2019-05-13T06:22:12.901Z,93.10
2019-05-13T06:25:03.338Z,93.40
2019-05-13T06:27:52.614Z,92.80
2019-05-13T06:30:42.155Z,92.10
2019-05-13T06:33:33.155Z,90.60
2019-05-13T06:36:22.271Z,88.10
2019-05-13T06:39:12.569Z,85.90
2019-05-13T06:42:03.071Z,87.10
2019-05-13T06:44:53.308Z,85.50
2019-05-13T06:47:43.042Z,81.40
2019-05-13T06:50:33.027Z,80.70
2019-05-13T06:53:23.023Z,80.40
2019-05-13T06:56:16.939Z,79.30
2019-05-13T06:59:06.418Z,74.60
2019-05-13T07:02:02.130Z,72.30
2019-05-13T07:04:57.288Z,70.00
2019-05-13T07:07:46.774Z,70.50
2019-05-13T07:10:36.907Z,68.30
2019-05-13T07:13:27.326Z,70.80
2019-05-13T07:16:17.053Z,66.50
2019-05-13T07:19:08.377Z,63.20
2019-05-13T07:21:58.798Z,60.00
2019-05-13T07:24:48.879Z,63.80
2019-05-13T07:27:38.916Z,59.20
2019-05-13T07:30:42.402Z,61.20
2019-05-13T07:33:32.182Z,58.50
2019-05-13T07:36:23.068Z,60.30
2019-05-13T07:39:13.605Z,57.00
2019-05-13T07:42:05.671Z,57.30
2019-05-13T07:44:53.085Z,60.00
2019-05-13T07:47:42.477Z,55.60
2019-05-13T07:50:32.246Z,54.40
2019-05-13T07:53:22.298Z,53.60
2019-05-13T07:56:18.441Z,55.20
2019-05-13T07:59:07.595Z,53.60
2019-05-13T08:02:03.106Z,52.40
2019-05-13T08:04:53.228Z,51.70
2019-05-13T08:07:42.545Z,49.90
2019-05-13T08:10:32.237Z,49.20
2019-05-13T08:13:23.789Z,47.70
2019-05-13T08:16:13.023Z,46.90
2019-05-13T08:19:02.110Z,45.20
2019-05-13T08:21:53.823Z,45.50
2019-05-13T08:24:43.662Z,44.40
2019-05-13T08:27:35.197Z,44.40
2019-05-13T08:33:22.477Z,42.40
2019-05-13T08:36:12.300Z,43.80
2019-05-13T08:39:02.666Z,44.50
2019-05-13T08:41:53.691Z,43.80
2019-05-13T08:44:42.654Z,42.90
2019-05-13T08:47:31.681Z,43.20
2019-05-13T08:50:22.039Z,43.40
2019-05-13T08:53:12.271Z,42.20
2019-05-13T08:56:01.879Z,41.20
2019-05-13T08:58:52.132Z,39.20
2019-05-13T09:01:42.816Z,39.00
2019-05-13T09:04:32.915Z,35.40
2019-05-13T09:07:24.479Z,36.90
2019-05-13T09:10:15.789Z,36.30
2019-05-13T09:13:05.534Z,36.10
2019-05-13T09:15:55.367Z,37.30
2019-05-13T09:18:45.317Z,36.90
2019-05-13T09:21:35.647Z,37.20
2019-05-13T09:24:33.011Z,37.10
2019-05-13T09:27:16.404Z,38.80
2019-05-13T09:30:05.699Z,38.20
2019-05-13T09:32:54.715Z,39.20
2019-05-13T09:35:44.534Z,38.10
2019-05-13T09:38:33.527Z,39.40
2019-05-13T09:41:23.325Z,38.50
2019-05-13T09:44:13.343Z,39.10
2019-05-13T09:47:02.892Z,40.50
2019-05-13T09:49:54.400Z,40.60
2019-05-13T09:52:43.115Z,41.10
2019-05-13T09:55:32.646Z,41.60
2019-05-13T09:58:22.512Z,42.40
2019-05-13T10:01:12.930Z,42.20
2019-05-13T10:04:03.364Z,43.30
2019-05-13T10:06:53.711Z,41.90
2019-05-13T10:09:48.074Z,42.10
2019-05-13T10:12:36.141Z,42.00
2019-05-13T10:15:27.440Z,42.60
2019-05-13T10:18:17.310Z,42.80
2019-05-13T10:21:06.816Z,43.10
2019-05-13T10:23:58.913Z,42.40
2019-05-13T10:26:48.259Z,41.30
2019-05-13T10:29:37.852Z,40.60
2019-05-13T10:32:27.507Z,41.60
2019-05-13T10:35:16.743Z,41.10
2019-05-13T10:38:06.559Z,40.80
2019-05-13T10:40:56.480Z,40.90
2019-05-13T10:43:46.329Z,41.00
2019-05-13T10:46:35.950Z,41.90
2019-05-13T10:49:25.086Z,41.10
2019-05-13T10:52:15.212Z,41.60
2019-05-13T10:55:05.331Z,40.70
2019-05-13T10:57:55.980Z,40.90
2019-05-13T11:00:49.102Z,40.60
2019-05-13T11:03:42.748Z,40.80
2019-05-13T11:06:33.123Z,39.80
2019-05-13T11:09:23.791Z,40.40
2019-05-13T11:12:13.151Z,40.40
2019-05-13T11:15:03.342Z,38.70
2019-05-13T11:17:53.519Z,38.80
2019-05-13T11:20:43.357Z,39.80
2019-05-13T11:23:37.784Z,40.30
2019-05-13T11:26:27.921Z,39.70
2019-05-13T11:29:17.596Z,39.60
2019-05-13T11:32:07.244Z,37.10
2019-05-13T11:34:56.682Z,37.50
2019-05-13T11:37:46.615Z,37.40
2019-05-13T11:40:37.236Z,38.10
2019-05-13T11:43:28.113Z,38.50
2019-05-13T11:46:18.253Z,37.70
2019-05-13T11:49:07.954Z,38.50
2019-05-13T11:51:58.115Z,38.80
2019-05-13T11:54:47.418Z,38.10
2019-05-13T11:57:37.672Z,39.40
2019-05-13T12:00:58.527Z,39.80
2019-05-13T12:03:47.897Z,39.90
2019-05-13T12:06:44.640Z,38.00
2019-05-13T12:09:28.269Z,37.00
2019-05-13T12:12:18.470Z,36.20
2019-05-13T12:15:38.194Z,36.70
2019-05-13T12:17:59.435Z,37.20
2019-05-13T12:20:53.938Z,35.60
2019-05-13T12:23:42.951Z,35.50
2019-05-13T12:26:33.435Z,36.60
2019-05-13T12:29:23.846Z,36.70
2019-05-13T12:32:14.651Z,37.70
2019-05-13T12:35:05.230Z,37.40
2019-05-13T12:37:54.913Z,38.80
2019-05-13T12:40:45.888Z,39.20
2019-05-13T12:43:36.102Z,39.60
2019-05-13T12:46:25.136Z,39.60
2019-05-13T12:49:15.087Z,40.40
2019-05-13T12:52:04.767Z,40.90
2019-05-13T12:54:53.904Z,39.60
2019-05-13T12:57:44.282Z,39.40
2019-05-13T13:00:42.816Z,39.00
2019-05-13T13:03:32.331Z,40.40
2019-05-13T13:06:32.490Z,40.70
2019-05-13T13:09:14.078Z,40.30
2019-05-13T13:12:04.725Z,40.20
2019-05-13T13:14:54.680Z,39.90
2019-05-13T13:17:45.049Z,37.90
2019-05-13T13:20:41.063Z,38.50
2019-05-13T13:23:26.085Z,37.70
2019-05-13T13:26:17.159Z,37.80
2019-05-13T13:29:07.051Z,36.50
2019-05-13T13:31:57.578Z,36.10
2019-05-13T13:34:47.130Z,37.10
2019-05-13T13:37:36.834Z,36.80
2019-05-13T13:40:29.535Z,37.30
2019-05-13T13:43:18.599Z,38.20
2019-05-13T13:46:25.329Z,37.90
2019-05-13T13:48:59.255Z,38.80
2019-05-13T13:51:47.947Z,38.10
2019-05-13T13:54:37.649Z,38.50
2019-05-13T13:57:27.612Z,38.20
2019-05-13T14:00:33.049Z,37.30
2019-05-13T14:03:12.394Z,37.50
2019-05-13T14:06:06.061Z,37.40
2019-05-13T14:08:58.537Z,37.20
2019-05-13T14:11:48.367Z,37.60
2019-05-13T14:14:37.362Z,37.80
2019-05-13T14:17:27.291Z,37.30
2019-05-13T14:20:16.801Z,38.60
2019-05-13T14:23:07.354Z,38.70
2019-05-13T14:26:00.903Z,36.80
2019-05-13T14:28:53.281Z,37.30
2019-05-13T14:31:41.469Z,38.20
2019-05-13T14:34:31.967Z,38.30
2019-05-13T14:37:22.473Z,37.40
2019-05-13T14:40:13.266Z,36.90
2019-05-13T14:43:03.906Z,37.20
2019-05-13T14:45:54.471Z,36.20
2019-05-13T14:48:43.540Z,35.80
2019-05-13T14:51:33.711Z,36.30
2019-05-13T14:54:22.742Z,35.80
2019-05-13T14:57:14.816Z,36.50
2019-05-13T15:00:03.407Z,36.50
2019-05-13T15:02:53.662Z,36.10
2019-05-13T15:05:43.990Z,36.80
2019-05-13T15:08:33.694Z,36.70
2019-05-13T15:11:24.167Z,36.00
2019-05-13T15:14:13.449Z,35.70
2019-05-13T15:17:07.374Z,36.10
2019-05-13T15:19:54.186Z,37.50
2019-05-13T15:22:43.383Z,36.30
2019-05-13T15:25:33.354Z,34.30
2019-05-13T15:28:23.400Z,33.80
2019-05-13T15:31:13.138Z,33.20
2019-05-13T15:34:02.850Z,33.60
2019-05-13T15:36:52.725Z,32.30
2019-05-13T15:39:42.876Z,31.90
2019-05-13T15:42:34.310Z,31.60
2019-05-13T15:45:24.034Z,31.90
2019-05-13T15:48:14.079Z,32.50
2019-05-13T15:51:03.882Z,32.70
2019-05-13T15:53:53.162Z,33.80
2019-05-13T15:56:42.651Z,34.30
2019-05-13T15:59:43.578Z,34.40
2019-05-13T16:02:33.921Z,35.50
2019-05-13T16:05:24.061Z,34.90
2019-05-13T16:08:13.554Z,34.30
2019-05-13T16:11:03.453Z,35.80
2019-05-13T16:13:53.222Z,36.30
2019-05-13T16:16:43.301Z,38.60
2019-05-13T16:19:33.399Z,39.30
2019-05-13T16:22:23.291Z,40.40
2019-05-13T16:25:14.042Z,37.60
2019-05-13T16:28:04.246Z,39.50
2019-05-13T16:30:54.423Z,38.80
2019-05-13T16:33:43.302Z,39.10
2019-05-13T16:36:32.282Z,37.40
2019-05-13T16:39:22.482Z,36.90
2019-05-13T16:42:12.632Z,41.00
2019-05-13T16:45:03.635Z,38.20
2019-05-13T16:47:58.032Z,41.30
2019-05-13T16:50:44.428Z,40.10
2019-05-13T16:53:33.487Z,38.60
2019-05-13T16:56:27.646Z,39.50
2019-05-13T16:59:14.093Z,40.00
2019-05-13T17:02:03.685Z,40.80
2019-05-13T17:04:53.990Z,42.50
2019-05-13T17:07:42.950Z,42.70
2019-05-13T17:10:33.434Z,40.30
2019-05-13T17:13:22.999Z,41.50
2019-05-13T17:16:12.370Z,41.20
2019-05-13T17:19:02.346Z,41.40
2019-05-13T17:21:52.104Z,41.90
2019-05-13T17:24:42.779Z,41.80
2019-05-13T17:27:32.091Z,41.30
2019-05-13T17:30:22.076Z,41.50
2019-05-13T17:33:11.901Z,40.80
2019-05-13T17:36:02.253Z,41.40
2019-05-13T17:38:52.606Z,40.70
2019-05-13T17:41:42.226Z,41.50
2019-05-13T17:44:32.171Z,39.70
2019-05-13T17:50:22.088Z,39.10
2019-05-13T17:53:11.512Z,38.30
2019-05-13T17:56:02.457Z,38.20
2019-05-13T17:58:54.770Z,38.40
2019-05-13T18:01:45.331Z,38.40
2019-05-13T18:04:34.429Z,39.10
2019-05-13T18:07:24.439Z,39.50
2019-05-13T18:10:14.473Z,40.50
2019-05-13T18:13:05.422Z,40.90
2019-05-13T18:15:55.007Z,41.50
2019-05-13T18:18:47.364Z,42.10
2019-05-13T18:21:34.904Z,42.10
2019-05-13T18:24:24.030Z,42.50
2019-05-13T18:27:14.094Z,42.70
2019-05-13T18:30:04.780Z,43.20
2019-05-13T18:32:54.870Z,43.60
2019-05-13T18:35:44.372Z,44.00
2019-05-13T18:38:33.600Z,44.00
2019-05-13T18:41:22.507Z,43.90
2019-05-13T18:44:12.223Z,43.60
2019-05-13T18:47:02.094Z,44.20
2019-05-13T18:49:52.214Z,43.90
2019-05-13T18:52:42.776Z,44.20
2019-05-13T18:55:31.789Z,44.50
2019-05-13T18:58:22.238Z,44.40
2019-05-13T19:01:13.458Z,44.40
2019-05-13T19:04:03.806Z,44.80
2019-05-13T19:06:52.867Z,45.00
2019-05-13T19:09:42.474Z,45.10
2019-05-13T19:12:33.463Z,45.00
2019-05-13T19:15:22.359Z,45.20
2019-05-13T19:18:12.303Z,45.50
2019-05-13T19:21:02.368Z,45.60
2019-05-13T19:23:52.760Z,46.00
2019-05-13T19:26:43.386Z,45.70
2019-05-13T19:29:32.611Z,46.30
2019-05-13T19:32:23.081Z,46.20
2019-05-13T19:35:12.645Z,46.20
2019-05-13T19:38:02.060Z,46.70
2019-05-13T19:40:51.385Z,47.10
2019-05-13T19:43:42.142Z,47.30
2019-05-13T19:46:32.270Z,47.50
2019-05-13T19:49:32.049Z,47.50
2019-05-13T19:52:13.579Z,48.10
2019-05-13T19:55:02.992Z,48.40
2019-05-13T19:57:52.484Z,48.30
2019-05-13T20:00:51.568Z,48.80
2019-05-13T20:03:47.342Z,49.10
2019-05-13T20:06:37.554Z,49.70
2019-05-13T20:09:28.834Z,49.50
2019-05-13T20:12:21.075Z,49.30
2019-05-13T20:15:11.754Z,49.20
2019-05-13T20:18:02.594Z,49.60
2019-05-13T20:20:52.326Z,50.10
2019-05-13T20:23:41.986Z,50.40
2019-05-13T20:26:32.244Z,50.80
2019-05-13T20:29:23.232Z,50.50
2019-05-13T20:32:13.373Z,51.20
2019-05-13T20:35:02.344Z,51.60
2019-05-13T20:37:52.210Z,52.20
2019-05-13T20:40:42.381Z,52.40
2019-05-13T20:43:32.796Z,52.40
2019-05-13T20:46:27.613Z,52.30
2019-05-13T20:49:17.194Z,53.20
2019-05-13T20:52:07.083Z,54.10
2019-05-13T20:54:56.203Z,54.00
2019-05-13T20:57:46.847Z,54.30
2019-05-13T21:00:43.792Z,54.50
2019-05-13T21:03:33.731Z,54.60
2019-05-13T21:06:24.526Z,54.60
2019-05-13T21:09:16.899Z,54.90
2019-05-13T21:12:05.485Z,54.80
2019-05-13T21:14:54.731Z,54.20
2019-05-13T21:17:44.478Z,54.50
2019-05-13T21:20:34.138Z,54.80
2019-05-13T21:23:24.341Z,55.00
2019-05-13T21:26:18.934Z,55.10
2019-05-13T21:29:08.541Z,55.40
2019-05-13T21:31:57.558Z,55.60
2019-05-13T21:34:47.466Z,55.70
2019-05-13T21:37:37.189Z,56.10
2019-05-13T21:40:26.852Z,56.40
2019-05-13T21:43:16.787Z,56.60
2019-05-13T21:46:06.243Z,56.70
2019-05-13T21:48:55.630Z,56.80
2019-05-13T21:51:46.006Z,57.10
2019-05-13T21:54:35.194Z,58.20
2019-05-13T21:57:25.114Z,58.80
2019-05-13T22:00:23.419Z,58.80
2019-05-13T22:03:12.426Z,59.40
2019-05-13T22:06:02.009Z,59.60
2019-05-13T22:08:58.218Z,60.60
2019-05-13T22:11:47.519Z,60.90
2019-05-13T22:14:36.216Z,61.50
2019-05-13T22:17:26.137Z,61.90
2019-05-13T22:20:16.110Z,61.90
2019-05-13T22:23:06.040Z,62.70
2019-05-13T22:25:56.442Z,62.90
2019-05-13T22:28:46.358Z,63.80
2019-05-13T22:31:35.992Z,64.20
2019-05-13T22:34:25.929Z,64.20
2019-05-13T22:37:15.076Z,64.30
2019-05-13T22:40:05.066Z,64.40
2019-05-13T22:42:56.597Z,65.00
2019-05-13T22:45:45.182Z,65.60
2019-05-13T22:48:35.150Z,65.20
2019-05-13T22:51:26.530Z,65.40
2019-05-13T22:54:16.983Z,65.70
2019-05-13T22:57:06.460Z,66.00
2019-05-13T22:59:55.810Z,66.20
2019-05-13T23:02:46.160Z,66.70
2019-05-13T23:05:35.893Z,67.90
2019-05-13T23:08:25.203Z,68.50
2019-05-13T23:11:14.490Z,68.70
2019-05-13T23:14:09.560Z,68.70
2019-05-13T23:16:55.652Z,70.20
2019-05-13T23:19:45.339Z,71.10
2019-05-13T23:22:34.342Z,72.60
2019-05-13T23:25:24.276Z,73.70
2019-05-13T23:28:13.675Z,75.00
2019-05-13T23:31:03.549Z,76.30
2019-05-13T23:33:53.790Z,77.30
2019-05-13T23:36:42.833Z,78.30
2019-05-13T23:39:32.649Z,79.60
2019-05-13T23:42:23.081Z,80.60
2019-05-13T23:45:12.940Z,82.20
2019-05-13T23:48:01.780Z,84.30
2019-05-13T23:50:52.170Z,86.60
2019-05-13T23:53:41.763Z,88.20
2019-05-13T23:56:31.593Z,90.40
2019-05-13T23:59:21.986Z,91.40
